sensor_id;sensor_type;location;lat;lon;timestamp;P1;durP1;ratioP1;P2;durP2;ratioP2
44110;SDS011;29774;52.664;5.074;2022-10-13T00:01:18;11.27;;;7.43;;
44110;SDS011;29774;52.664;5.074;2022-10-13T00:03:45;13.57;;;7.28;;
44110;SDS011;29774;52.664;5.074;2022-10-13T00:06:12;13.57;;;7.28;;
44110;SDS011;29774;52.664;5.074;2022-10-13T00:08:40;12.30;;;7.00;;
44110;SDS011;29774;52.664;5.074;2022-10-13T00:13:40;10.75;;;6.65;;
44110;SDS011;29774;52.664;5.074;2022-10-13T00:16:06;14.65;;;7.72;;
44110;SDS011;29774;52.664;5.074;2022-10-13T00:18:32;12.23;;;6.40;;
44110;SDS011;29774;52.664;5.074;2022-10-13T00:20:58;12.60;;;6.55;;
44110;SDS011;29774;52.664;5.074;2022-10-13T00:23:24;15.98;;;7.30;;
44110;SDS011;29774;52.664;5.074;2022-10-13T00:25:49;13.60;;;5.93;;
44110;SDS011;29774;52.664;5.074;2022-10-13T00:28:16;11.00;;;6.72;;
44110;SDS011;29774;52.664;5.074;2022-10-13T00:30:43;12.30;;;6.60;;
44110;SDS011;29774;52.664;5.074;2022-10-13T00:33:10;15.35;;;7.72;;
44110;SDS011;29774;52.664;5.074;2022-10-13T00:35:40;12.82;;;6.82;;
44110;SDS011;29774;52.664;5.074;2022-10-13T00:38:07;13.68;;;6.85;;
44110;SDS011;29774;52.664;5.074;2022-10-13T00:40:33;14.45;;;7.55;;
44110;SDS011;29774;52.664;5.074;2022-10-13T00:43:12;14.98;;;7.10;;
44110;SDS011;29774;52.664;5.074;2022-10-13T00:45:46;13.55;;;7.03;;
44110;SDS011;29774;52.664;5.074;2022-10-13T00:48:14;15.85;;;7.13;;
44110;SDS011;29774;52.664;5.074;2022-10-13T00:50:59;11.43;;;7.10;;
44110;SDS011;29774;52.664;5.074;2022-10-13T00:53:26;11.02;;;6.90;;
44110;SDS011;29774;52.664;5.074;2022-10-13T00:55:58;11.15;;;7.10;;
44110;SDS011;29774;52.664;5.074;2022-10-13T00:58:25;15.13;;;7.70;;
44110;SDS011;29774;52.664;5.074;2022-10-13T01:00:55;11.15;;;6.97;;
44110;SDS011;29774;52.664;5.074;2022-10-13T01:03:21;12.18;;;7.05;;
44110;SDS011;29774;52.664;5.074;2022-10-13T01:05:47;12.13;;;6.32;;
44110;SDS011;29774;52.664;5.074;2022-10-13T01:08:15;11.48;;;7.00;;
44110;SDS011;29774;52.664;5.074;2022-10-13T01:11:04;11.30;;;6.88;;
44110;SDS011;29774;52.664;5.074;2022-10-13T01:13:59;9.05;;;6.50;;
44110;SDS011;29774;52.664;5.074;2022-10-13T01:24:46;11.35;;;6.93;;
44110;SDS011;29774;52.664;5.074;2022-10-13T01:32:28;9.70;;;6.75;;
44110;SDS011;29774;52.664;5.074;2022-10-13T01:46:37;12.40;;;7.25;;
44110;SDS011;29774;52.664;5.074;2022-10-13T01:49:04;11.10;;;6.75;;
44110;SDS011;29774;52.664;5.074;2022-10-13T01:51:34;11.93;;;7.03;;
44110;SDS011;29774;52.664;5.074;2022-10-13T01:54:01;10.18;;;7.47;;
44110;SDS011;29774;52.664;5.074;2022-10-13T01:56:27;7.57;;;5.95;;
44110;SDS011;29774;52.664;5.074;2022-10-13T01:58:52;10.35;;;7.38;;
44110;SDS011;29774;52.664;5.074;2022-10-13T02:07:10;10.80;;;7.07;;
44110;SDS011;29774;52.664;5.074;2022-10-13T02:09:43;11.98;;;7.97;;
44110;SDS011;29774;52.664;5.074;2022-10-13T02:14:56;13.00;;;7.53;;
44110;SDS011;29774;52.664;5.074;2022-10-13T02:17:24;15.98;;;8.15;;
44110;SDS011;29774;52.664;5.074;2022-10-13T02:19:51;14.40;;;8.38;;
44110;SDS011;29774;52.664;5.074;2022-10-13T02:22:18;11.90;;;7.43;;
44110;SDS011;29774;52.664;5.074;2022-10-13T02:24:46;8.20;;;5.50;;
44110;SDS011;29774;52.664;5.074;2022-10-13T02:27:11;12.77;;;7.15;;
44110;SDS011;29774;52.664;5.074;2022-10-13T02:29:47;13.43;;;7.28;;
44110;SDS011;29774;52.664;5.074;2022-10-13T02:32:14;11.50;;;8.18;;
44110;SDS011;29774;52.664;5.074;2022-10-13T02:34:40;8.98;;;6.63;;
44110;SDS011;29774;52.664;5.074;2022-10-13T02:37:05;12.60;;;7.93;;
44110;SDS011;29774;52.664;5.074;2022-10-13T02:39:31;8.98;;;6.93;;
44110;SDS011;29774;52.664;5.074;2022-10-13T02:41:57;8.13;;;4.90;;
44110;SDS011;29774;52.664;5.074;2022-10-13T02:44:22;11.30;;;7.22;;
44110;SDS011;29774;52.664;5.074;2022-10-13T02:46:48;11.15;;;8.20;;
44110;SDS011;29774;52.664;5.074;2022-10-13T02:49:14;12.57;;;8.98;;
44110;SDS011;29774;52.664;5.074;2022-10-13T02:51:39;14.57;;;7.80;;
44110;SDS011;29774;52.664;5.074;2022-10-13T02:54:05;7.53;;;6.28;;
44110;SDS011;29774;52.664;5.074;2022-10-13T02:56:31;6.53;;;4.93;;
44110;SDS011;29774;52.664;5.074;2022-10-13T02:58:56;12.95;;;7.78;;
44110;SDS011;29774;52.664;5.074;2022-10-13T03:01:22;12.95;;;7.53;;
44110;SDS011;29774;52.664;5.074;2022-10-13T03:03:47;10.35;;;7.13;;
44110;SDS011;29774;52.664;5.074;2022-10-13T03:06:13;7.82;;;5.72;;
44110;SDS011;29774;52.664;5.074;2022-10-13T03:08:38;11.10;;;8.27;;
44110;SDS011;29774;52.664;5.074;2022-10-13T03:11:04;8.98;;;6.20;;
44110;SDS011;29774;52.664;5.074;2022-10-13T03:13:30;8.48;;;5.43;;
44110;SDS011;29774;52.664;5.074;2022-10-13T03:15:55;12.38;;;8.40;;
44110;SDS011;29774;52.664;5.074;2022-10-13T03:18:21;14.40;;;8.50;;
44110;SDS011;29774;52.664;5.074;2022-10-13T03:21:00;8.38;;;6.13;;
44110;SDS011;29774;52.664;5.074;2022-10-13T03:23:28;11.13;;;6.43;;
44110;SDS011;29774;52.664;5.074;2022-10-13T03:25:54;9.52;;;6.78;;
44110;SDS011;29774;52.664;5.074;2022-10-13T03:28:20;10.55;;;8.60;;
44110;SDS011;29774;52.664;5.074;2022-10-13T03:30:46;8.60;;;6.50;;
44110;SDS011;29774;52.664;5.074;2022-10-13T03:33:12;6.80;;;5.25;;
44110;SDS011;29774;52.664;5.074;2022-10-13T03:35:37;9.25;;;6.13;;
44110;SDS011;29774;52.664;5.074;2022-10-13T03:38:03;10.20;;;7.20;;
44110;SDS011;29774;52.664;5.074;2022-10-13T03:40:29;10.57;;;7.85;;
44110;SDS011;29774;52.664;5.074;2022-10-13T03:42:54;13.63;;;8.48;;
44110;SDS011;29774;52.664;5.074;2022-10-13T03:45:20;9.20;;;7.10;;
44110;SDS011;29774;52.664;5.074;2022-10-13T03:47:45;8.88;;;5.95;;
44110;SDS011;29774;52.664;5.074;2022-10-13T03:50:11;12.65;;;7.57;;
44110;SDS011;29774;52.664;5.074;2022-10-13T03:52:37;10.48;;;7.65;;
44110;SDS011;29774;52.664;5.074;2022-10-13T03:55:02;10.30;;;5.53;;
44110;SDS011;29774;52.664;5.074;2022-10-13T03:57:28;9.35;;;6.53;;
44110;SDS011;29774;52.664;5.074;2022-10-13T03:59:54;12.15;;;7.38;;
44110;SDS011;29774;52.664;5.074;2022-10-13T04:02:21;9.40;;;6.90;;
44110;SDS011;29774;52.664;5.074;2022-10-13T04:04:47;10.55;;;7.13;;
44110;SDS011;29774;52.664;5.074;2022-10-13T04:07:13;10.95;;;7.07;;
44110;SDS011;29774;52.664;5.074;2022-10-13T04:09:38;9.82;;;7.38;;
44110;SDS011;29774;52.664;5.074;2022-10-13T04:12:04;10.30;;;7.55;;
44110;SDS011;29774;52.664;5.074;2022-10-13T04:14:29;12.15;;;8.50;;
44110;SDS011;29774;52.664;5.074;2022-10-13T04:16:55;11.63;;;7.78;;
44110;SDS011;29774;52.664;5.074;2022-10-13T04:19:21;13.95;;;9.50;;
44110;SDS011;29774;52.664;5.074;2022-10-13T04:21:46;8.05;;;6.47;;
44110;SDS011;29774;52.664;5.074;2022-10-13T04:24:12;15.38;;;9.35;;
44110;SDS011;29774;52.664;5.074;2022-10-13T04:26:38;12.98;;;9.65;;
44110;SDS011;29774;52.664;5.074;2022-10-13T04:29:05;16.17;;;10.55;;
44110;SDS011;29774;52.664;5.074;2022-10-13T04:31:32;12.95;;;9.65;;
44110;SDS011;29774;52.664;5.074;2022-10-13T04:33:58;12.07;;;9.20;;
44110;SDS011;29774;52.664;5.074;2022-10-13T04:36:24;15.43;;;10.02;;
44110;SDS011;29774;52.664;5.074;2022-10-13T04:38:50;11.38;;;7.60;;
44110;SDS011;29774;52.664;5.074;2022-10-13T04:41:16;13.27;;;9.88;;
44110;SDS011;29774;52.664;5.074;2022-10-13T04:43:42;14.48;;;9.88;;
44110;SDS011;29774;52.664;5.074;2022-10-13T04:46:12;16.35;;;11.13;;
44110;SDS011;29774;52.664;5.074;2022-10-13T04:48:38;15.45;;;10.27;;
44110;SDS011;29774;52.664;5.074;2022-10-13T04:51:06;11.75;;;8.23;;
44110;SDS011;29774;52.664;5.074;2022-10-13T04:53:40;14.27;;;11.20;;
44110;SDS011;29774;52.664;5.074;2022-10-13T04:56:06;17.45;;;10.82;;
44110;SDS011;29774;52.664;5.074;2022-10-13T04:58:34;16.60;;;11.35;;
44110;SDS011;29774;52.664;5.074;2022-10-13T05:01:01;14.20;;;9.38;;
44110;SDS011;29774;52.664;5.074;2022-10-13T05:03:27;15.52;;;10.77;;
44110;SDS011;29774;52.664;5.074;2022-10-13T05:05:53;16.35;;;10.68;;
44110;SDS011;29774;52.664;5.074;2022-10-13T05:08:18;15.93;;;11.00;;
44110;SDS011;29774;52.664;5.074;2022-10-13T05:10:54;13.68;;;11.30;;
44110;SDS011;29774;52.664;5.074;2022-10-13T05:13:22;13.95;;;10.40;;
44110;SDS011;29774;52.664;5.074;2022-10-13T05:15:48;16.67;;;11.55;;
44110;SDS011;29774;52.664;5.074;2022-10-13T05:18:14;12.32;;;9.80;;
44110;SDS011;29774;52.664;5.074;2022-10-13T05:20:40;16.02;;;11.25;;
44110;SDS011;29774;52.664;5.074;2022-10-13T05:23:05;12.57;;;10.38;;
44110;SDS011;29774;52.664;5.074;2022-10-13T05:25:32;15.07;;;10.02;;
44110;SDS011;29774;52.664;5.074;2022-10-13T05:27:59;16.73;;;9.77;;
44110;SDS011;29774;52.664;5.074;2022-10-13T05:30:24;16.40;;;11.90;;
44110;SDS011;29774;52.664;5.074;2022-10-13T05:32:50;18.35;;;12.13;;
44110;SDS011;29774;52.664;5.074;2022-10-13T05:35:15;15.38;;;12.20;;
44110;SDS011;29774;52.664;5.074;2022-10-13T05:37:41;17.23;;;12.20;;
44110;SDS011;29774;52.664;5.074;2022-10-13T05:40:07;15.35;;;10.80;;
44110;SDS011;29774;52.664;5.074;2022-10-13T05:42:33;13.35;;;10.45;;
44110;SDS011;29774;52.664;5.074;2022-10-13T05:44:59;11.45;;;8.57;;
44110;SDS011;29774;52.664;5.074;2022-10-13T05:47:25;15.13;;;8.15;;
44110;SDS011;29774;52.664;5.074;2022-10-13T05:49:52;10.90;;;9.13;;
44110;SDS011;29774;52.664;5.074;2022-10-13T05:52:19;14.13;;;9.73;;
44110;SDS011;29774;52.664;5.074;2022-10-13T05:54:47;21.30;;;12.02;;
44110;SDS011;29774;52.664;5.074;2022-10-13T05:57:17;10.02;;;7.53;;
44110;SDS011;29774;52.664;5.074;2022-10-13T05:59:50;9.30;;;7.32;;
44110;SDS011;29774;52.664;5.074;2022-10-13T06:02:19;17.08;;;12.00;;
44110;SDS011;29774;52.664;5.074;2022-10-13T06:04:49;10.05;;;7.00;;
44110;SDS011;29774;52.664;5.074;2022-10-13T06:07:17;11.43;;;7.75;;
44110;SDS011;29774;52.664;5.074;2022-10-13T06:09:43;9.35;;;7.22;;
44110;SDS011;29774;52.664;5.074;2022-10-13T06:12:09;13.13;;;8.70;;
44110;SDS011;29774;52.664;5.074;2022-10-13T06:14:35;9.82;;;7.90;;
44110;SDS011;29774;52.664;5.074;2022-10-13T06:17:00;16.17;;;11.27;;
44110;SDS011;29774;52.664;5.074;2022-10-13T06:19:26;11.77;;;8.55;;
44110;SDS011;29774;52.664;5.074;2022-10-13T06:21:52;9.75;;;8.38;;
44110;SDS011;29774;52.664;5.074;2022-10-13T06:24:17;10.30;;;7.95;;
44110;SDS011;29774;52.664;5.074;2022-10-13T06:26:43;14.75;;;10.60;;
44110;SDS011;29774;52.664;5.074;2022-10-13T06:29:08;13.60;;;12.15;;
44110;SDS011;29774;52.664;5.074;2022-10-13T06:31:34;12.80;;;9.75;;
44110;SDS011;29774;52.664;5.074;2022-10-13T06:33:59;11.68;;;9.32;;
44110;SDS011;29774;52.664;5.074;2022-10-13T06:36:25;11.82;;;9.18;;
44110;SDS011;29774;52.664;5.074;2022-10-13T06:38:51;13.57;;;10.38;;
44110;SDS011;29774;52.664;5.074;2022-10-13T06:41:17;14.45;;;10.93;;
44110;SDS011;29774;52.664;5.074;2022-10-13T06:43:43;11.88;;;8.15;;
44110;SDS011;29774;52.664;5.074;2022-10-13T06:46:09;14.85;;;10.90;;
44110;SDS011;29774;52.664;5.074;2022-10-13T06:48:35;12.73;;;11.27;;
44110;SDS011;29774;52.664;5.074;2022-10-13T06:51:04;9.45;;;7.47;;
44110;SDS011;29774;52.664;5.074;2022-10-13T06:53:34;15.55;;;12.23;;
44110;SDS011;29774;52.664;5.074;2022-10-13T06:56:02;15.63;;;13.30;;
44110;SDS011;29774;52.664;5.074;2022-10-13T06:58:29;9.68;;;7.35;;
44110;SDS011;29774;52.664;5.074;2022-10-13T07:00:55;10.52;;;8.75;;
44110;SDS011;29774;52.664;5.074;2022-10-13T07:03:21;7.82;;;7.03;;
44110;SDS011;29774;52.664;5.074;2022-10-13T07:05:48;9.55;;;7.03;;
44110;SDS011;29774;52.664;5.074;2022-10-13T07:08:13;10.95;;;7.82;;
44110;SDS011;29774;52.664;5.074;2022-10-13T07:10:39;9.05;;;6.43;;
44110;SDS011;29774;52.664;5.074;2022-10-13T07:13:05;12.27;;;9.32;;
44110;SDS011;29774;52.664;5.074;2022-10-13T07:15:31;8.80;;;7.15;;
44110;SDS011;29774;52.664;5.074;2022-10-13T07:17:56;14.88;;;11.43;;
44110;SDS011;29774;52.664;5.074;2022-10-13T07:20:22;13.27;;;10.05;;
44110;SDS011;29774;52.664;5.074;2022-10-13T07:22:48;11.02;;;8.20;;
44110;SDS011;29774;52.664;5.074;2022-10-13T07:25:16;11.18;;;8.20;;
44110;SDS011;29774;52.664;5.074;2022-10-13T07:27:42;11.82;;;8.18;;
44110;SDS011;29774;52.664;5.074;2022-10-13T07:30:08;10.40;;;8.20;;
44110;SDS011;29774;52.664;5.074;2022-10-13T07:32:34;18.48;;;13.32;;
44110;SDS011;29774;52.664;5.074;2022-10-13T07:35:00;9.20;;;7.78;;
44110;SDS011;29774;52.664;5.074;2022-10-13T07:37:26;17.27;;;12.38;;
44110;SDS011;29774;52.664;5.074;2022-10-13T07:39:52;19.92;;;12.15;;
44110;SDS011;29774;52.664;5.074;2022-10-13T07:42:17;11.13;;;8.50;;
44110;SDS011;29774;52.664;5.074;2022-10-13T07:44:43;9.02;;;6.90;;
44110;SDS011;29774;52.664;5.074;2022-10-13T07:47:08;13.48;;;9.63;;
44110;SDS011;29774;52.664;5.074;2022-10-13T07:49:34;14.20;;;10.30;;
44110;SDS011;29774;52.664;5.074;2022-10-13T07:52:00;8.88;;;7.03;;
44110;SDS011;29774;52.664;5.074;2022-10-13T07:54:26;9.70;;;7.38;;
44110;SDS011;29774;52.664;5.074;2022-10-13T07:56:52;11.57;;;8.77;;
44110;SDS011;29774;52.664;5.074;2022-10-13T07:59:18;16.42;;;13.32;;
44110;SDS011;29774;52.664;5.074;2022-10-13T08:01:44;20.02;;;13.50;;
44110;SDS011;29774;52.664;5.074;2022-10-13T08:04:09;21.65;;;13.52;;
44110;SDS011;29774;52.664;5.074;2022-10-13T08:06:38;14.25;;;10.73;;
44110;SDS011;29774;52.664;5.074;2022-10-13T08:09:04;19.02;;;13.07;;
44110;SDS011;29774;52.664;5.074;2022-10-13T08:11:30;11.90;;;9.77;;
44110;SDS011;29774;52.664;5.074;2022-10-13T08:13:55;9.68;;;7.13;;
44110;SDS011;29774;52.664;5.074;2022-10-13T08:16:25;10.77;;;8.95;;
44110;SDS011;29774;52.664;5.074;2022-10-13T08:18:51;18.95;;;12.32;;
44110;SDS011;29774;52.664;5.074;2022-10-13T08:21:18;18.98;;;12.77;;
44110;SDS011;29774;52.664;5.074;2022-10-13T08:23:46;14.20;;;9.82;;
44110;SDS011;29774;52.664;5.074;2022-10-13T08:26:16;18.25;;;12.85;;
44110;SDS011;29774;52.664;5.074;2022-10-13T08:28:45;7.72;;;6.63;;
44110;SDS011;29774;52.664;5.074;2022-10-13T08:31:11;10.32;;;8.95;;
44110;SDS011;29774;52.664;5.074;2022-10-13T08:33:36;11.57;;;7.13;;
44110;SDS011;29774;52.664;5.074;2022-10-13T08:36:03;12.75;;;9.32;;
44110;SDS011;29774;52.664;5.074;2022-10-13T08:38:28;13.63;;;12.07;;
44110;SDS011;29774;52.664;5.074;2022-10-13T08:40:54;11.20;;;9.70;;
44110;SDS011;29774;52.664;5.074;2022-10-13T08:43:21;17.27;;;14.10;;
44110;SDS011;29774;52.664;5.074;2022-10-13T08:45:48;18.85;;;12.85;;
44110;SDS011;29774;52.664;5.074;2022-10-13T08:48:18;18.38;;;14.70;;
44110;SDS011;29774;52.664;5.074;2022-10-13T08:50:48;16.50;;;12.32;;
44110;SDS011;29774;52.664;5.074;2022-10-13T08:55:59;17.33;;;14.35;;
44110;SDS011;29774;52.664;5.074;2022-10-13T08:58:44;19.17;;;14.93;;
44110;SDS011;29774;52.664;5.074;2022-10-13T09:01:16;17.67;;;15.65;;
44110;SDS011;29774;52.664;5.074;2022-10-13T09:09:23;20.45;;;15.75;;
44110;SDS011;29774;52.664;5.074;2022-10-13T09:11:49;19.85;;;14.93;;
44110;SDS011;29774;52.664;5.074;2022-10-13T09:14:22;15.48;;;11.50;;
44110;SDS011;29774;52.664;5.074;2022-10-13T09:17:19;17.42;;;14.85;;
44110;SDS011;29774;52.664;5.074;2022-10-13T09:22:32;19.25;;;15.18;;
44110;SDS011;29774;52.664;5.074;2022-10-13T09:25:07;20.55;;;15.52;;
44110;SDS011;29774;52.664;5.074;2022-10-13T09:27:50;19.17;;;15.23;;
44110;SDS011;29774;52.664;5.074;2022-10-13T09:35:37;19.85;;;13.32;;
44110;SDS011;29774;52.664;5.074;2022-10-13T09:38:05;10.80;;;8.98;;
44110;SDS011;29774;52.664;5.074;2022-10-13T09:40:34;14.95;;;12.52;;
44110;SDS011;29774;52.664;5.074;2022-10-13T09:43:00;16.90;;;12.18;;
44110;SDS011;29774;52.664;5.074;2022-10-13T09:45:30;17.35;;;12.05;;
44110;SDS011;29774;52.664;5.074;2022-10-13T09:48:00;15.88;;;11.40;;
44110;SDS011;29774;52.664;5.074;2022-10-13T09:50:30;14.43;;;11.65;;
44110;SDS011;29774;52.664;5.074;2022-10-13T09:53:39;18.80;;;11.38;;
44110;SDS011;29774;52.664;5.074;2022-10-13T09:55:45;18.17;;;11.32;;
44110;SDS011;29774;52.664;5.074;2022-10-13T09:58:15;13.77;;;9.48;;
44110;SDS011;29774;52.664;5.074;2022-10-13T10:00:53;12.30;;;9.60;;
44110;SDS011;29774;52.664;5.074;2022-10-13T10:03:22;13.60;;;9.52;;
44110;SDS011;29774;52.664;5.074;2022-10-13T10:05:53;11.40;;;8.77;;
44110;SDS011;29774;52.664;5.074;2022-10-13T10:08:30;11.50;;;8.73;;
44110;SDS011;29774;52.664;5.074;2022-10-13T10:27:38;7.72;;;6.00;;
44110;SDS011;29774;52.664;5.074;2022-10-13T10:30:20;7.30;;;5.28;;
44110;SDS011;29774;52.664;5.074;2022-10-13T10:35:19;6.40;;;4.18;;
44110;SDS011;29774;52.664;5.074;2022-10-13T10:41:11;5.45;;;4.00;;
44110;SDS011;29774;52.664;5.074;2022-10-13T10:46:47;3.67;;;2.60;;
44110;SDS011;29774;52.664;5.074;2022-10-13T10:49:23;3.67;;;2.50;;
44110;SDS011;29774;52.664;5.074;2022-10-13T10:51:53;3.28;;;2.65;;
44110;SDS011;29774;52.664;5.074;2022-10-13T10:56:55;3.88;;;2.53;;
44110;SDS011;29774;52.664;5.074;2022-10-13T11:04:42;4.13;;;2.85;;
44110;SDS011;29774;52.664;5.074;2022-10-13T11:19:57;4.00;;;2.60;;
44110;SDS011;29774;52.664;5.074;2022-10-13T11:22:25;4.28;;;2.47;;
44110;SDS011;29774;52.664;5.074;2022-10-13T11:27:58;4.35;;;2.47;;
44110;SDS011;29774;52.664;5.074;2022-10-13T11:33:30;3.10;;;2.33;;
44110;SDS011;29774;52.664;5.074;2022-10-13T11:41:45;4.13;;;2.10;;
44110;SDS011;29774;52.664;5.074;2022-10-13T11:47:22;4.40;;;2.28;;
44110;SDS011;29774;52.664;5.074;2022-10-13T11:53:18;3.05;;;2.00;;
44110;SDS011;29774;52.664;5.074;2022-10-13T11:55:55;4.40;;;2.10;;
44110;SDS011;29774;52.664;5.074;2022-10-13T11:58:22;5.47;;;1.73;;
44110;SDS011;29774;52.664;5.074;2022-10-13T12:03:22;4.35;;;2.30;;
44110;SDS011;29774;52.664;5.074;2022-10-13T12:05:48;5.30;;;2.38;;
44110;SDS011;29774;52.664;5.074;2022-10-13T12:08:14;5.35;;;2.47;;
44110;SDS011;29774;52.664;5.074;2022-10-13T12:10:40;4.18;;;2.10;;
44110;SDS011;29774;52.664;5.074;2022-10-13T12:13:15;3.47;;;1.90;;
44110;SDS011;29774;52.664;5.074;2022-10-13T12:15:45;4.85;;;2.00;;
44110;SDS011;29774;52.664;5.074;2022-10-13T12:20:55;4.55;;;2.58;;
44110;SDS011;29774;52.664;5.074;2022-10-13T12:23:34;2.40;;;1.90;;
44110;SDS011;29774;52.664;5.074;2022-10-13T12:26:00;4.15;;;1.88;;
44110;SDS011;29774;52.664;5.074;2022-10-13T12:28:41;3.33;;;1.98;;
44110;SDS011;29774;52.664;5.074;2022-10-13T12:31:17;4.00;;;2.30;;
44110;SDS011;29774;52.664;5.074;2022-10-13T12:33:57;4.90;;;1.98;;
44110;SDS011;29774;52.664;5.074;2022-10-13T12:36:28;3.97;;;2.15;;
44110;SDS011;29774;52.664;5.074;2022-10-13T12:39:03;4.43;;;2.25;;
44110;SDS011;29774;52.664;5.074;2022-10-13T12:41:34;2.92;;;1.75;;
44110;SDS011;29774;52.664;5.074;2022-10-13T12:44:02;4.60;;;1.85;;
44110;SDS011;29774;52.664;5.074;2022-10-13T12:46:41;4.07;;;2.10;;
44110;SDS011;29774;52.664;5.074;2022-10-13T12:51:41;5.28;;;2.58;;
44110;SDS011;29774;52.664;5.074;2022-10-13T12:54:20;3.63;;;2.00;;
44110;SDS011;29774;52.664;5.074;2022-10-13T12:56:49;4.80;;;2.25;;
44110;SDS011;29774;52.664;5.074;2022-10-13T12:59:18;5.55;;;2.80;;
44110;SDS011;29774;52.664;5.074;2022-10-13T13:01:45;6.35;;;2.40;;
44110;SDS011;29774;52.664;5.074;2022-10-13T13:04:26;3.85;;;1.90;;
44110;SDS011;29774;52.664;5.074;2022-10-13T13:07:03;5.30;;;1.98;;
44110;SDS011;29774;52.664;5.074;2022-10-13T13:09:31;2.55;;;1.65;;
44110;SDS011;29774;52.664;5.074;2022-10-13T13:12:03;5.50;;;2.55;;
44110;SDS011;29774;52.664;5.074;2022-10-13T13:17:06;6.88;;;3.13;;
44110;SDS011;29774;52.664;5.074;2022-10-13T13:19:38;4.85;;;2.75;;
44110;SDS011;29774;52.664;5.074;2022-10-13T13:22:18;4.45;;;2.30;;
44110;SDS011;29774;52.664;5.074;2022-10-13T13:24:44;4.35;;;2.60;;
44110;SDS011;29774;52.664;5.074;2022-10-13T13:29:48;3.65;;;1.80;;
44110;SDS011;29774;52.664;5.074;2022-10-13T13:32:14;1.70;;;1.60;;
44110;SDS011;29774;52.664;5.074;2022-10-13T13:34:42;1.90;;;1.40;;
44110;SDS011;29774;52.664;5.074;2022-10-13T13:37:12;1.63;;;1.52;;
44110;SDS011;29774;52.664;5.074;2022-10-13T13:39:46;4.07;;;1.30;;
44110;SDS011;29774;52.664;5.074;2022-10-13T13:42:12;2.55;;;1.35;;
44110;SDS011;29774;52.664;5.074;2022-10-13T13:44:39;1.45;;;1.17;;
44110;SDS011;29774;52.664;5.074;2022-10-13T13:47:07;1.25;;;1.10;;
44110;SDS011;29774;52.664;5.074;2022-10-13T13:49:43;1.42;;;0.70;;
44110;SDS011;29774;52.664;5.074;2022-10-13T13:52:09;0.80;;;0.80;;
44110;SDS011;29774;52.664;5.074;2022-10-13T13:54:53;1.60;;;0.90;;
44110;SDS011;29774;52.664;5.074;2022-10-13T13:57:20;2.13;;;1.10;;
44110;SDS011;29774;52.664;5.074;2022-10-13T13:59:45;5.65;;;0.85;;
44110;SDS011;29774;52.664;5.074;2022-10-13T14:02:16;1.85;;;0.80;;
44110;SDS011;29774;52.664;5.074;2022-10-13T14:04:44;0.98;;;0.80;;
44110;SDS011;29774;52.664;5.074;2022-10-13T14:07:10;2.03;;;0.80;;
44110;SDS011;29774;52.664;5.074;2022-10-13T14:09:36;0.88;;;0.88;;
44110;SDS011;29774;52.664;5.074;2022-10-13T14:12:02;1.75;;;1.33;;
44110;SDS011;29774;52.664;5.074;2022-10-13T14:14:31;1.70;;;1.10;;
44110;SDS011;29774;52.664;5.074;2022-10-13T14:16:57;1.55;;;1.08;;
44110;SDS011;29774;52.664;5.074;2022-10-13T14:19:23;2.08;;;1.10;;
44110;SDS011;29774;52.664;5.074;2022-10-13T14:21:49;3.08;;;1.23;;
44110;SDS011;29774;52.664;5.074;2022-10-13T14:24:15;2.00;;;1.17;;
44110;SDS011;29774;52.664;5.074;2022-10-13T14:26:40;1.20;;;1.10;;
44110;SDS011;29774;52.664;5.074;2022-10-13T14:29:06;2.42;;;1.40;;
44110;SDS011;29774;52.664;5.074;2022-10-13T14:31:32;2.35;;;1.50;;
44110;SDS011;29774;52.664;5.074;2022-10-13T14:33:58;2.30;;;1.50;;
44110;SDS011;29774;52.664;5.074;2022-10-13T14:36:24;1.48;;;1.23;;
44110;SDS011;29774;52.664;5.074;2022-10-13T14:38:50;2.75;;;1.50;;
44110;SDS011;29774;52.664;5.074;2022-10-13T14:41:15;1.58;;;1.48;;
44110;SDS011;29774;52.664;5.074;2022-10-13T14:43:41;2.25;;;1.35;;
44110;SDS011;29774;52.664;5.074;2022-10-13T14:46:07;3.08;;;1.40;;
44110;SDS011;29774;52.664;5.074;2022-10-13T14:48:33;2.45;;;1.40;;
44110;SDS011;29774;52.664;5.074;2022-10-13T14:51:07;2.33;;;1.30;;
44110;SDS011;29774;52.664;5.074;2022-10-13T14:53:38;2.88;;;1.30;;
44110;SDS011;29774;52.664;5.074;2022-10-13T14:56:17;3.40;;;1.40;;
44110;SDS011;29774;52.664;5.074;2022-10-13T14:58:47;1.73;;;1.17;;
44110;SDS011;29774;52.664;5.074;2022-10-13T15:01:15;1.17;;;1.08;;
44110;SDS011;29774;52.664;5.074;2022-10-13T15:03:41;1.27;;;1.17;;
44110;SDS011;29774;52.664;5.074;2022-10-13T15:06:07;2.38;;;1.45;;
44110;SDS011;29774;52.664;5.074;2022-10-13T15:08:37;2.28;;;1.20;;
44110;SDS011;29774;52.664;5.074;2022-10-13T15:11:03;1.55;;;1.30;;
44110;SDS011;29774;52.664;5.074;2022-10-13T15:13:29;2.13;;;1.25;;
44110;SDS011;29774;52.664;5.074;2022-10-13T15:15:55;1.67;;;1.20;;
44110;SDS011;29774;52.664;5.074;2022-10-13T15:18:22;1.50;;;1.15;;
44110;SDS011;29774;52.664;5.074;2022-10-13T15:20:47;1.67;;;1.23;;
44110;SDS011;29774;52.664;5.074;2022-10-13T15:23:14;2.05;;;1.33;;
44110;SDS011;29774;52.664;5.074;2022-10-13T15:25:48;1.73;;;1.33;;
44110;SDS011;29774;52.664;5.074;2022-10-13T15:28:21;1.60;;;1.13;;
44110;SDS011;29774;52.664;5.074;2022-10-13T15:30:48;1.90;;;1.48;;
44110;SDS011;29774;52.664;5.074;2022-10-13T15:33:14;2.67;;;1.30;;
44110;SDS011;29774;52.664;5.074;2022-10-13T15:35:40;2.50;;;1.23;;
44110;SDS011;29774;52.664;5.074;2022-10-13T15:38:05;4.18;;;1.30;;
44110;SDS011;29774;52.664;5.074;2022-10-13T15:40:31;1.27;;;1.10;;
44110;SDS011;29774;52.664;5.074;2022-10-13T15:42:58;1.63;;;1.38;;
44110;SDS011;29774;52.664;5.074;2022-10-13T15:45:24;1.48;;;1.10;;
44110;SDS011;29774;52.664;5.074;2022-10-13T15:47:50;1.77;;;1.35;;
44110;SDS011;29774;52.664;5.074;2022-10-13T15:50:16;2.30;;;1.58;;
44110;SDS011;29774;52.664;5.074;2022-10-13T15:52:42;2.10;;;1.20;;
44110;SDS011;29774;52.664;5.074;2022-10-13T15:55:08;2.78;;;1.25;;
44110;SDS011;29774;52.664;5.074;2022-10-13T15:57:35;1.63;;;1.20;;
44110;SDS011;29774;52.664;5.074;2022-10-13T16:00:01;1.50;;;1.35;;
44110;SDS011;29774;52.664;5.074;2022-10-13T16:02:26;2.00;;;1.52;;
44110;SDS011;29774;52.664;5.074;2022-10-13T16:04:52;4.05;;;1.95;;
44110;SDS011;29774;52.664;5.074;2022-10-13T16:07:17;3.38;;;2.20;;
44110;SDS011;29774;52.664;5.074;2022-10-13T16:09:43;2.92;;;1.85;;
44110;SDS011;29774;52.664;5.074;2022-10-13T16:12:09;2.13;;;1.50;;
44110;SDS011;29774;52.664;5.074;2022-10-13T16:14:35;2.70;;;1.40;;
44110;SDS011;29774;52.664;5.074;2022-10-13T16:17:00;1.60;;;1.48;;
44110;SDS011;29774;52.664;5.074;2022-10-13T16:19:26;1.80;;;1.60;;
44110;SDS011;29774;52.664;5.074;2022-10-13T16:21:52;1.42;;;1.20;;
44110;SDS011;29774;52.664;5.074;2022-10-13T16:24:17;2.45;;;1.83;;
44110;SDS011;29774;52.664;5.074;2022-10-13T16:26:43;2.85;;;1.60;;
44110;SDS011;29774;52.664;5.074;2022-10-13T16:29:08;1.83;;;1.50;;
44110;SDS011;29774;52.664;5.074;2022-10-13T16:31:34;2.50;;;1.50;;
44110;SDS011;29774;52.664;5.074;2022-10-13T16:33:59;2.28;;;1.33;;
44110;SDS011;29774;52.664;5.074;2022-10-13T16:36:25;3.80;;;1.33;;
44110;SDS011;29774;52.664;5.074;2022-10-13T16:38:51;2.08;;;1.20;;
44110;SDS011;29774;52.664;5.074;2022-10-13T16:41:18;2.78;;;1.20;;
44110;SDS011;29774;52.664;5.074;2022-10-13T16:43:45;1.33;;;1.20;;
44110;SDS011;29774;52.664;5.074;2022-10-13T16:46:12;1.77;;;1.30;;
44110;SDS011;29774;52.664;5.074;2022-10-13T16:48:40;2.33;;;2.00;;
44110;SDS011;29774;52.664;5.074;2022-10-13T16:51:07;2.83;;;2.45;;
44110;SDS011;29774;52.664;5.074;2022-10-13T16:53:36;3.67;;;3.00;;